createdAt,value
2019-02-27T00:00:17.824Z,3.10
2019-02-27T00:02:46.476Z,3.10
2019-02-27T00:05:15.136Z,3.03
2019-02-27T00:07:43.716Z,3.40
2019-02-27T00:10:12.631Z,3.40
2019-02-27T00:12:41.292Z,3.60
2019-02-27T00:15:10.006Z,3.50
2019-02-27T00:17:38.765Z,3.40
2019-02-27T00:20:07.980Z,3.30
2019-02-27T00:22:36.570Z,4.17
2019-02-27T00:25:05.557Z,3.50
2019-02-27T00:27:34.276Z,3.83
2019-02-27T00:30:05.591Z,3.83
2019-02-27T00:32:33.280Z,3.73
2019-02-27T00:35:06.473Z,4.00
2019-02-27T00:37:32.108Z,4.43
2019-02-27T00:40:05.457Z,4.20
2019-02-27T00:42:33.578Z,4.00
2019-02-27T00:45:01.278Z,4.33
2019-02-27T00:47:29.851Z,4.70
2019-02-27T00:49:58.446Z,4.80
2019-02-27T00:52:27.032Z,4.70
2019-02-27T00:54:55.641Z,4.87
2019-02-27T00:57:24.232Z,4.77
2019-02-27T00:59:52.820Z,4.70
2019-02-27T01:02:21.480Z,4.37
2019-02-27T01:04:50.060Z,4.90
2019-02-27T01:07:20.748Z,4.40
2019-02-27T01:09:50.188Z,4.27
2019-02-27T01:12:18.969Z,4.50
2019-02-27T01:14:47.544Z,4.97
2019-02-27T01:17:16.149Z,4.63
2019-02-27T01:19:44.736Z,4.57
2019-02-27T01:22:13.509Z,4.87
2019-02-27T01:24:42.105Z,4.10
2019-02-27T01:27:10.683Z,4.40
2019-02-27T01:29:39.284Z,4.70
2019-02-27T01:32:07.864Z,4.40
2019-02-27T01:34:36.572Z,4.37
2019-02-27T01:37:05.241Z,4.70
2019-02-27T01:39:33.844Z,4.87
2019-02-27T01:42:02.493Z,3.97
2019-02-27T01:44:50.576Z,5.10
2019-02-27T01:47:19.892Z,4.87
2019-02-27T01:49:49.155Z,5.33
2019-02-27T01:52:18.360Z,5.57
2019-02-27T01:54:48.856Z,5.10
2019-02-27T01:57:17.245Z,5.63
2019-02-27T01:59:50.258Z,6.10
2019-02-27T02:02:16.055Z,6.03
2019-02-27T02:04:44.704Z,5.80
2019-02-27T02:07:13.352Z,6.20
2019-02-27T02:09:42.192Z,6.67
2019-02-27T02:12:16.582Z,7.20
2019-02-27T02:14:54.096Z,7.83
2019-02-27T02:17:45.292Z,8.43
2019-02-27T02:20:42.764Z,8.20
2019-02-27T02:23:31.100Z,9.27
2019-02-27T02:26:14.727Z,9.03
2019-02-27T02:29:06.057Z,9.43
2019-02-27T02:31:41.601Z,7.87
2019-02-27T02:34:40.299Z,9.60
2019-02-27T02:37:11.612Z,8.73
2019-02-27T02:39:55.357Z,8.60
2019-02-27T02:42:45.365Z,8.90
2019-02-27T02:45:35.314Z,8.90
2019-02-27T02:48:12.597Z,9.73
2019-02-27T02:51:18.809Z,9.67
2019-02-27T02:54:13.513Z,9.43
2019-02-27T02:57:09.160Z,10.33
2019-02-27T02:59:59.905Z,10.87
2019-02-27T03:02:48.916Z,11.87
2019-02-27T03:05:38.584Z,12.17
2019-02-27T03:08:22.438Z,11.83
2019-02-27T03:11:21.337Z,12.03
2019-02-27T03:13:55.916Z,12.80
2019-02-27T03:16:33.824Z,12.50
2019-02-27T03:19:08.369Z,13.17
2019-02-27T03:21:54.900Z,13.47
2019-02-27T03:24:44.488Z,14.50
2019-02-27T03:27:19.054Z,13.77
2019-02-27T03:29:53.918Z,14.60
2019-02-27T03:32:48.165Z,14.30
2019-02-27T03:35:36.388Z,14.67
2019-02-27T03:38:13.842Z,14.67
2019-02-27T03:41:12.341Z,14.53
2019-02-27T03:44:01.693Z,15.23
2019-02-27T03:46:40.782Z,14.80
2019-02-27T03:49:11.901Z,15.60
2019-02-27T03:52:06.105Z,15.50
2019-02-27T03:54:40.368Z,16.00
2019-02-27T03:57:18.895Z,17.00
2019-02-27T03:59:53.809Z,15.70
2019-02-27T04:05:22.058Z,17.00
2019-02-27T04:08:11.780Z,16.17
2019-02-27T04:10:40.525Z,17.17
2019-02-27T04:13:09.173Z,16.40
2019-02-27T04:15:37.899Z,16.40
2019-02-27T04:18:05.409Z,17.17
2019-02-27T04:20:33.998Z,15.97
2019-02-27T04:23:02.594Z,15.70
2019-02-27T04:25:32.195Z,16.53
2019-02-27T04:28:00.955Z,17.37
2019-02-27T04:30:29.548Z,16.93
2019-02-27T04:32:58.130Z,17.27
2019-02-27T04:35:26.731Z,17.10
2019-02-27T04:37:55.312Z,16.53
2019-02-27T04:40:23.905Z,16.50
2019-02-27T04:42:52.488Z,16.63
2019-02-27T04:45:21.081Z,16.33
2019-02-27T04:47:49.660Z,17.47
2019-02-27T04:50:18.312Z,16.60
2019-02-27T04:52:46.909Z,16.80
2019-02-27T04:55:15.651Z,16.53
2019-02-27T04:57:44.762Z,16.80
2019-02-27T05:00:13.530Z,17.03
2019-02-27T05:02:42.114Z,17.50
2019-02-27T05:05:10.922Z,17.03
2019-02-27T05:07:39.577Z,16.47
2019-02-27T05:10:09.486Z,16.97
2019-02-27T05:12:38.094Z,16.40
2019-02-27T05:15:08.802Z,16.33
2019-02-27T05:17:37.375Z,16.90
2019-02-27T05:20:11.657Z,16.37
2019-02-27T05:22:38.518Z,17.63
2019-02-27T05:27:43.122Z,17.23
2019-02-27T05:30:12.900Z,18.00
2019-02-27T05:32:41.412Z,17.03
2019-02-27T05:35:09.998Z,17.80
2019-02-27T05:37:39.338Z,18.77
2019-02-27T05:40:10.051Z,17.93
2019-02-27T05:42:39.110Z,17.63
2019-02-27T05:45:11.138Z,20.67
2019-02-27T05:47:44.842Z,19.47
2019-02-27T05:50:11.874Z,17.73
2019-02-27T05:52:40.468Z,18.37
2019-02-27T05:55:09.093Z,19.50
2019-02-27T05:57:37.678Z,18.80
2019-02-27T06:00:15.077Z,19.07
2019-02-27T06:02:44.984Z,18.67
2019-02-27T06:05:14.038Z,17.20
2019-02-27T06:07:42.601Z,19.67
2019-02-27T06:10:20.126Z,19.93
2019-02-27T06:12:47.945Z,18.93
2019-02-27T06:15:18.435Z,18.50
2019-02-27T06:17:49.082Z,19.20
2019-02-27T06:20:17.434Z,18.60
2019-02-27T06:22:46.006Z,18.80
2019-02-27T06:25:21.681Z,19.30
2019-02-27T06:27:47.898Z,19.87
2019-02-27T06:30:18.106Z,20.53
2019-02-27T06:32:46.753Z,20.77
2019-02-27T06:35:15.967Z,21.40
2019-02-27T06:37:44.638Z,21.03
2019-02-27T06:40:15.353Z,21.50
2019-02-27T06:42:44.008Z,21.30
2019-02-27T06:45:17.055Z,21.13
2019-02-27T06:47:45.706Z,21.77
2019-02-27T06:50:15.818Z,22.43
2019-02-27T06:52:46.291Z,22.87
2019-02-27T06:55:15.575Z,23.27
2019-02-27T06:57:44.219Z,22.87
2019-02-27T07:00:23.651Z,24.00
2019-02-27T07:02:55.241Z,24.07
2019-02-27T07:05:22.789Z,24.67
2019-02-27T07:07:51.369Z,24.43
2019-02-27T07:10:20.667Z,24.17
2019-02-27T07:12:49.307Z,23.23
2019-02-27T07:15:22.861Z,24.03
2019-02-27T07:17:51.706Z,22.73
2019-02-27T07:20:24.050Z,24.23
2019-02-27T07:22:50.594Z,23.30
2019-02-27T07:25:20.019Z,23.33
2019-02-27T07:27:49.296Z,24.73
2019-02-27T07:30:19.907Z,24.47
2019-02-27T07:32:48.633Z,24.90
2019-02-27T07:35:17.438Z,24.70
2019-02-27T07:37:48.006Z,25.07
2019-02-27T07:40:17.533Z,24.52
2019-02-27T07:42:46.222Z,24.05
2019-02-27T07:45:22.929Z,25.10
2019-02-27T07:47:51.762Z,24.92
2019-02-27T07:50:21.272Z,24.85
2019-02-27T07:52:51.943Z,24.92
2019-02-27T07:55:22.918Z,25.85
2019-02-27T07:57:50.459Z,24.37
2019-02-27T08:00:20.859Z,24.92
2019-02-27T08:02:49.506Z,23.90
2019-02-27T08:05:18.164Z,23.25
2019-02-27T08:07:49.112Z,25.27
2019-02-27T08:10:21.694Z,24.53
2019-02-27T08:12:50.343Z,26.20
2019-02-27T08:15:19.767Z,23.42
2019-02-27T08:17:48.545Z,24.87
2019-02-27T08:20:20.206Z,25.00
2019-02-27T08:22:48.252Z,25.05
2019-02-27T08:25:19.822Z,23.20
2019-02-27T08:27:48.577Z,23.57
2019-02-27T08:30:25.969Z,25.40
2019-02-27T08:32:54.754Z,23.95
2019-02-27T08:35:23.670Z,22.43
2019-02-27T08:38:01.903Z,24.37
2019-02-27T08:40:25.115Z,22.98
2019-02-27T08:42:52.842Z,24.07
2019-02-27T08:45:26.472Z,23.65
2019-02-27T08:47:51.899Z,24.23
2019-02-27T08:50:22.696Z,22.20
2019-02-27T08:52:51.863Z,22.45
2019-02-27T08:55:22.518Z,22.73
2019-02-27T08:57:56.061Z,22.55
2019-02-27T09:00:33.251Z,23.00
2019-02-27T09:03:02.876Z,22.45
2019-02-27T09:05:32.174Z,22.43
2019-02-27T09:08:00.769Z,22.67
2019-02-27T09:10:30.649Z,22.40
2019-02-27T09:13:05.379Z,20.57
2019-02-27T09:15:29.729Z,20.47
2019-02-27T09:17:59.244Z,20.50
2019-02-27T09:20:28.602Z,21.13
2019-02-27T09:22:57.198Z,20.23
2019-02-27T09:25:26.066Z,19.82
2019-02-27T09:27:54.640Z,19.40
2019-02-27T09:30:28.892Z,19.23
2019-02-27T09:32:54.958Z,19.80
2019-02-27T09:35:23.615Z,18.57
2019-02-27T09:37:52.266Z,18.98
2019-02-27T09:40:29.701Z,18.40
2019-02-27T09:42:58.536Z,18.80
2019-02-27T09:45:35.515Z,18.20
2019-02-27T09:48:04.987Z,18.42
2019-02-27T09:50:52.939Z,16.37
2019-02-27T09:53:21.574Z,16.70
2019-02-27T09:55:53.526Z,15.43
2019-02-27T09:58:22.500Z,15.40
2019-02-27T10:01:01.481Z,15.23
2019-02-27T10:03:29.629Z,16.60
2019-02-27T10:05:58.338Z,15.68
2019-02-27T10:08:27.073Z,17.13
2019-02-27T10:10:55.642Z,17.97
2019-02-27T10:13:24.333Z,16.53
2019-02-27T10:15:52.974Z,15.40
2019-02-27T10:18:22.196Z,14.38
2019-02-27T10:20:50.935Z,13.67
2019-02-27T10:23:19.514Z,15.05
2019-02-27T10:25:49.846Z,14.28
2019-02-27T10:28:18.462Z,15.33
2019-02-27T10:30:49.937Z,16.27
2019-02-27T10:33:17.346Z,15.28
2019-02-27T10:35:46.065Z,15.53
2019-02-27T10:38:14.646Z,15.80
2019-02-27T10:40:46.042Z,16.00
2019-02-27T10:43:13.469Z,16.03
2019-02-27T10:45:42.343Z,15.20
2019-02-27T10:48:12.589Z,15.53
2019-02-27T10:50:41.234Z,14.70
2019-02-27T10:53:09.823Z,14.98
2019-02-27T10:55:38.398Z,14.93
2019-02-27T10:58:07.776Z,14.97
2019-02-27T11:00:36.490Z,14.90
2019-02-27T11:03:05.226Z,17.00
2019-02-27T11:05:38.762Z,15.00
2019-02-27T11:08:07.802Z,14.47
2019-02-27T11:10:36.547Z,15.33
2019-02-27T11:13:06.805Z,15.27
2019-02-27T11:15:35.595Z,15.53
2019-02-27T11:18:05.718Z,14.70
2019-02-27T11:20:34.567Z,14.00
2019-02-27T11:23:06.435Z,15.40
2019-02-27T11:25:33.664Z,15.87
2019-02-27T11:28:02.272Z,15.07
2019-02-27T11:30:38.646Z,15.03
2019-02-27T11:33:07.358Z,15.23
2019-02-27T11:35:36.070Z,15.57
2019-02-27T11:38:05.668Z,13.73
2019-02-27T11:40:34.246Z,15.67
2019-02-27T11:43:06.425Z,14.10
2019-02-27T11:45:33.332Z,13.87
2019-02-27T11:50:36.615Z,13.10
2019-02-27T11:53:05.341Z,13.05
2019-02-27T11:55:33.991Z,13.60
2019-02-27T11:58:05.323Z,14.10
2019-02-27T12:00:36.187Z,12.80
2019-02-27T12:03:04.838Z,12.60
2019-02-27T12:05:34.410Z,13.27
2019-02-27T12:08:03.180Z,12.07
2019-02-27T12:10:32.473Z,11.30
2019-02-27T12:13:01.739Z,10.50
2019-02-27T12:15:31.736Z,9.90
2019-02-27T12:18:01.603Z,10.03
2019-02-27T12:20:30.733Z,10.03
2019-02-27T12:22:59.450Z,10.03
2019-02-27T12:25:30.041Z,8.55
2019-02-27T12:27:58.394Z,8.45
2019-02-27T12:30:28.827Z,8.58
2019-02-27T12:32:57.552Z,8.03
2019-02-27T12:35:37.054Z,9.03
2019-02-27T12:38:08.163Z,8.25
2019-02-27T12:40:36.586Z,8.18
2019-02-27T12:43:05.406Z,7.58
2019-02-27T12:45:34.193Z,8.27
2019-02-27T12:48:02.820Z,7.58
2019-02-27T12:50:31.700Z,7.57
2019-02-27T12:53:00.382Z,7.53
2019-02-27T12:55:29.101Z,7.35
2019-02-27T12:57:57.687Z,7.55
2019-02-27T13:00:36.074Z,6.28
2019-02-27T13:03:08.418Z,6.90
2019-02-27T13:05:35.384Z,6.70
2019-02-27T13:08:04.294Z,6.23
2019-02-27T13:10:34.121Z,6.10
2019-02-27T13:13:02.960Z,7.23
2019-02-27T13:15:31.614Z,6.03
2019-02-27T13:18:00.254Z,6.60
2019-02-27T13:20:30.177Z,5.95
2019-02-27T13:23:04.059Z,5.90
2019-02-27T13:25:30.373Z,5.57
2019-02-27T13:27:59.250Z,5.40
2019-02-27T13:30:28.566Z,5.60
2019-02-27T13:33:00.729Z,6.10
2019-02-27T13:35:28.508Z,5.40
2019-02-27T13:37:57.730Z,5.60
2019-02-27T13:40:28.609Z,5.95
2019-02-27T13:42:57.362Z,6.03
2019-02-27T13:45:27.566Z,5.47
2019-02-27T13:47:56.298Z,5.50
2019-02-27T13:50:26.814Z,5.67
2019-02-27T13:52:55.577Z,5.73
2019-02-27T13:55:24.510Z,5.78
2019-02-27T13:57:53.170Z,5.40
2019-02-27T14:00:25.851Z,6.13
2019-02-27T14:02:54.631Z,5.20
2019-02-27T14:05:23.210Z,5.58
2019-02-27T14:07:57.238Z,5.50
2019-02-27T14:10:25.662Z,5.90
2019-02-27T14:12:54.303Z,5.17
2019-02-27T14:15:26.950Z,4.97
2019-02-27T14:17:53.980Z,4.97
2019-02-27T14:20:27.109Z,4.90
2019-02-27T14:22:54.364Z,6.50
2019-02-27T14:25:33.231Z,5.50
2019-02-27T14:28:01.745Z,5.30
2019-02-27T14:30:35.548Z,5.03
2019-02-27T14:33:03.729Z,4.87
2019-02-27T14:35:36.201Z,4.37
2019-02-27T14:38:02.678Z,4.47
2019-02-27T14:40:31.237Z,4.40
2019-02-27T14:42:59.911Z,4.30
2019-02-27T14:45:28.630Z,4.30
2019-02-27T14:47:57.269Z,3.77
2019-02-27T14:50:26.026Z,3.60
2019-02-27T14:52:54.755Z,3.60
2019-02-27T14:55:23.602Z,3.10
2019-02-27T14:57:52.248Z,3.60
2019-02-27T15:00:29.649Z,3.80
2019-02-27T15:02:58.454Z,3.10
2019-02-27T15:05:27.754Z,3.70
2019-02-27T15:07:56.466Z,3.10
2019-02-27T15:10:25.615Z,3.27
2019-02-27T15:12:55.537Z,2.60
2019-02-27T15:15:26.884Z,3.33
2019-02-27T15:17:55.699Z,2.90
2019-02-27T15:20:26.686Z,3.03
2019-02-27T15:22:55.347Z,3.20
2019-02-27T15:25:24.079Z,3.00
2019-02-27T15:27:52.686Z,3.03
2019-02-27T15:30:26.637Z,3.00
2019-02-27T15:32:55.431Z,3.03
2019-02-27T15:35:24.078Z,2.80
2019-02-27T15:37:52.785Z,3.03
2019-02-27T15:40:28.541Z,2.97
2019-02-27T15:42:54.242Z,3.30
2019-02-27T15:45:24.342Z,3.00
2019-02-27T15:47:53.100Z,3.17
2019-02-27T15:50:27.434Z,3.20
2019-02-27T15:52:56.071Z,2.80
2019-02-27T15:55:24.912Z,2.90
2019-02-27T15:57:54.165Z,2.77
2019-02-27T16:00:27.521Z,2.87
2019-02-27T16:02:56.458Z,3.20
2019-02-27T16:05:30.019Z,2.60
2019-02-27T16:07:57.143Z,2.47
2019-02-27T16:10:26.966Z,2.50
2019-02-27T16:12:59.849Z,2.40
2019-02-27T16:15:26.104Z,2.53
2019-02-27T16:17:54.745Z,2.33
2019-02-27T16:20:28.207Z,2.40
2019-02-27T16:22:56.886Z,2.10
2019-02-27T16:25:26.807Z,2.07
2019-02-27T16:27:55.819Z,2.80
2019-02-27T16:30:32.489Z,1.90
2019-02-27T16:32:58.872Z,2.40
2019-02-27T16:35:27.670Z,2.70
2019-02-27T16:37:57.576Z,2.30
2019-02-27T16:40:32.492Z,2.17
2019-02-27T16:43:01.044Z,3.10
2019-02-27T16:45:36.833Z,2.80
2019-02-27T16:48:05.607Z,2.20
2019-02-27T16:50:34.390Z,2.77
2019-02-27T16:53:03.044Z,2.30
2019-02-27T16:55:35.880Z,2.57
2019-02-27T16:58:02.222Z,2.77
2019-02-27T17:00:32.235Z,2.40
2019-02-27T17:03:00.878Z,2.30
2019-02-27T17:05:31.703Z,2.07
2019-02-27T17:08:02.300Z,2.33
2019-02-27T17:10:35.524Z,2.23
2019-02-27T17:13:04.390Z,2.30
2019-02-27T17:15:36.013Z,2.30
2019-02-27T17:18:03.320Z,2.40
2019-02-27T17:20:31.978Z,2.40
2019-02-27T17:23:00.582Z,2.27
2019-02-27T17:25:30.242Z,2.43
2019-02-27T17:27:58.979Z,2.50
2019-02-27T17:30:30.731Z,2.63
2019-02-27T17:33:01.410Z,2.53
2019-02-27T17:35:29.702Z,2.60
2019-02-27T17:37:58.447Z,2.70
2019-02-27T17:40:29.039Z,2.50
2019-02-27T17:42:57.347Z,2.40
2019-02-27T17:45:26.852Z,3.80
2019-02-27T17:47:55.571Z,7.90
2019-02-27T17:50:24.480Z,3.80
2019-02-27T17:52:53.494Z,4.60
2019-02-27T17:55:22.417Z,4.30
2019-02-27T17:57:57.722Z,2.70
2019-02-27T18:00:32.623Z,2.47
2019-02-27T18:03:01.230Z,2.73
2019-02-27T18:05:29.934Z,2.40
2019-02-27T18:07:58.570Z,2.60
2019-02-27T18:10:27.218Z,2.83
2019-02-27T18:12:55.802Z,2.50
2019-02-27T18:15:25.222Z,2.63
2019-02-27T18:17:53.965Z,2.40
2019-02-27T18:20:25.511Z,2.20
2019-02-27T18:22:52.916Z,2.53
2019-02-27T18:25:21.607Z,2.37
2019-02-27T18:27:50.422Z,2.73
2019-02-27T18:30:20.836Z,2.80
2019-02-27T18:32:49.856Z,2.60
2019-02-27T18:35:19.657Z,2.97
2019-02-27T18:37:53.192Z,2.33
2019-02-27T18:40:19.624Z,2.63
2019-02-27T18:42:48.231Z,3.23
2019-02-27T18:45:22.262Z,3.53
2019-02-27T18:47:50.922Z,3.53
2019-02-27T18:50:19.574Z,3.07
2019-02-27T18:52:48.785Z,3.20
2019-02-27T18:55:17.598Z,3.30
2019-02-27T18:57:47.375Z,2.97
2019-02-27T19:00:24.556Z,3.10
2019-02-27T19:03:01.791Z,3.13
2019-02-27T19:05:30.372Z,3.10
2019-02-27T19:07:59.006Z,3.43
2019-02-27T19:10:27.729Z,3.43
2019-02-27T19:12:56.297Z,4.43
2019-02-27T19:15:26.412Z,3.87
2019-02-27T19:17:55.126Z,3.77
2019-02-27T19:20:42.789Z,3.80
2019-02-27T19:23:11.705Z,4.33
2019-02-27T19:25:41.843Z,4.43
2019-02-27T19:28:10.834Z,3.83
2019-02-27T19:30:41.856Z,3.50
2019-02-27T19:33:09.862Z,4.57
2019-02-27T19:35:38.442Z,3.73
2019-02-27T19:38:07.171Z,4.03
2019-02-27T19:40:36.730Z,4.00
2019-02-27T19:43:06.366Z,4.80
2019-02-27T19:45:35.794Z,4.00
2019-02-27T19:48:05.332Z,4.60
2019-02-27T19:50:35.703Z,4.07
2019-02-27T19:53:06.943Z,3.93
2019-02-27T19:55:34.835Z,4.50
2019-02-27T19:58:03.710Z,4.33
2019-02-27T20:00:35.183Z,4.40
2019-02-27T20:03:04.202Z,3.93
2019-02-27T20:05:36.252Z,4.67
2019-02-27T20:08:03.546Z,4.37
2019-02-27T20:10:33.897Z,4.57
2019-02-27T20:13:02.567Z,4.97
2019-02-27T20:15:31.267Z,3.93
2019-02-27T20:18:01.258Z,3.90
2019-02-27T20:20:32.547Z,5.13
2019-02-27T20:23:01.212Z,4.80
2019-02-27T20:25:32.863Z,4.57
2019-02-27T20:28:03.774Z,4.43
2019-02-27T20:30:34.001Z,4.73
2019-02-27T20:33:04.931Z,4.67
2019-02-27T20:35:33.502Z,4.83
2019-02-27T20:38:02.081Z,4.00
2019-02-27T20:40:33.777Z,4.60
2019-02-27T20:43:01.107Z,4.27
2019-02-27T20:45:29.758Z,4.40
2019-02-27T20:48:02.846Z,4.70
2019-02-27T20:50:37.018Z,4.13
2019-02-27T20:53:06.829Z,4.30
2019-02-27T20:55:35.390Z,4.93
2019-02-27T20:58:06.383Z,5.23
2019-02-27T21:00:37.281Z,5.03
2019-02-27T21:03:06.022Z,4.23
2019-02-27T21:05:35.239Z,4.70
2019-02-27T21:08:05.375Z,4.83
2019-02-27T21:10:35.049Z,4.47
2019-02-27T21:13:03.697Z,4.67
2019-02-27T21:15:33.444Z,4.90
2019-02-27T21:18:02.323Z,5.17
2019-02-27T21:20:32.901Z,5.20
2019-02-27T21:23:01.311Z,5.50
2019-02-27T21:25:30.042Z,4.07
2019-02-27T21:27:58.602Z,4.57
2019-02-27T21:30:27.398Z,4.80
2019-02-27T21:32:56.134Z,4.83
2019-02-27T21:35:28.859Z,4.20
2019-02-27T21:37:55.246Z,4.90
2019-02-27T21:40:24.050Z,4.63
2019-02-27T21:42:52.618Z,4.83
2019-02-27T21:45:24.878Z,4.40
2019-02-27T21:47:53.530Z,4.50
2019-02-27T21:50:25.661Z,4.10
2019-02-27T21:52:55.615Z,4.20
2019-02-27T21:55:25.073Z,4.27
2019-02-27T21:57:53.719Z,4.40
2019-02-27T22:00:24.743Z,4.73
2019-02-27T22:02:54.961Z,4.57
2019-02-27T22:05:23.672Z,4.70
2019-02-27T22:07:52.474Z,4.40
2019-02-27T22:10:21.122Z,5.57
2019-02-27T22:12:49.763Z,5.10
2019-02-27T22:15:23.007Z,4.33
2019-02-27T22:17:51.273Z,4.63
2019-02-27T22:20:19.851Z,4.97
2019-02-27T22:22:48.442Z,5.10
2019-02-27T22:25:17.054Z,4.53
2019-02-27T22:27:46.615Z,5.27
2019-02-27T22:30:17.538Z,4.53
2019-02-27T22:32:48.179Z,5.37
2019-02-27T22:35:16.470Z,6.63
2019-02-27T22:37:45.193Z,6.23
2019-02-27T22:40:16.471Z,5.17
2019-02-27T22:42:45.470Z,7.43
2019-02-27T22:45:19.473Z,5.90
2019-02-27T22:47:48.890Z,5.77
2019-02-27T22:50:20.739Z,5.60
2019-02-27T22:52:54.105Z,5.63
2019-02-27T22:55:19.686Z,6.27
2019-02-27T22:57:48.394Z,6.00
2019-02-27T23:00:44.153Z,6.73
2019-02-27T23:03:12.805Z,5.50
2019-02-27T23:05:41.522Z,5.40
2019-02-27T23:08:10.318Z,5.73
2019-02-27T23:10:39.138Z,5.63
2019-02-27T23:13:12.398Z,6.10
2019-02-27T23:15:39.594Z,5.90
2019-02-27T23:18:08.379Z,6.10
2019-02-27T23:20:37.078Z,6.30
2019-02-27T23:23:05.725Z,6.33
2019-02-27T23:25:34.435Z,5.63
2019-02-27T23:28:03.086Z,5.57
2019-02-27T23:30:31.707Z,6.67
2019-02-27T23:33:02.290Z,6.23
2019-02-27T23:35:30.524Z,5.63
2019-02-27T23:38:03.075Z,6.03
2019-02-27T23:40:29.322Z,5.60
2019-02-27T23:43:02.416Z,5.63
2019-02-27T23:45:28.274Z,5.97
2019-02-27T23:47:59.196Z,6.03
2019-02-27T23:50:27.169Z,5.33
2019-02-27T23:52:55.947Z,5.80
2019-02-27T23:55:24.596Z,6.67
2019-02-27T23:57:57.578Z,6.40
